Time;durP1;ratioP1;P1;durP2;ratioP2;P2;SDS_P1;SDS_P2;PMS_P1;PMS_P2;Temp;Humidity;BMP_temperature;BMP_pressure;BME280_temperature;BME280_humidity;BME280_pressure;Samples;Min_cycle;Max_cycle;Signal;HPM_P1;HPM_P2
2023/05/18 00:02:06;;;;;;;13.00;8.13;;;8.30;99.90;;;;;;5045824;28;20413;-68
2023/05/18 00:04:33;;;;;;;15.07;10.67;;;8.30;99.90;;;;;;5044368;28;20403;-69
2023/05/18 00:07:03;;;;;;;14.17;8.50;;;8.30;99.90;;;;;;5042298;28;20197;-67
2023/05/18 00:09:30;;;;;;;10.00;7.00;;;8.20;99.90;;;;;;5042707;28;20441;-67
2023/05/18 00:11:57;;;;;;;9.20;7.17;;;8.20;99.90;;;;;;5045358;28;20418;-68
2023/05/18 00:14:22;;;;;;;10.53;8.13;;;8.20;99.90;;;;;;5039089;28;20414;-68
2023/05/18 00:16:48;;;;;;;10.60;6.70;;;8.20;99.90;;;;;;5044900;28;20922;-72
2023/05/18 00:19:15;;;;;;;15.27;9.67;;;8.10;99.90;;;;;;5041927;28;20199;-68
2023/05/18 00:21:41;;;;;;;20.40;10.77;;;8.10;99.90;;;;;;5040299;28;20421;-68
2023/05/18 00:24:09;;;;;;;15.80;9.00;;;8.10;99.90;;;;;;5041533;28;20430;-69
2023/05/18 00:26:36;;;;;;;13.80;7.30;;;8.10;99.90;;;;;;5044775;28;20420;-68
2023/05/18 00:29:02;;;;;;;18.13;8.70;;;8.10;99.90;;;;;;5050207;28;20413;-68
2023/05/18 00:31:28;;;;;;;6.03;3.60;;;8.00;99.90;;;;;;5042911;28;20417;-68
2023/05/18 00:33:53;;;;;;;6.73;4.00;;;8.00;99.90;;;;;;5046200;28;20257;-68
2023/05/18 00:36:19;;;;;;;6.57;3.03;;;8.00;99.90;;;;;;5044463;28;20183;-68
2023/05/18 00:38:44;;;;;;;6.40;2.90;;;8.00;99.90;;;;;;5041445;28;20531;-69
2023/05/18 00:41:10;;;;;;;14.63;2.83;;;8.00;99.90;;;;;;5046946;28;20623;-68
2023/05/18 00:43:40;;;;;;;4.33;2.40;;;8.00;99.90;;;;;;5041893;28;20459;-68
2023/05/18 00:46:05;;;;;;;4.97;2.30;;;7.90;99.90;;;;;;5047229;28;20535;-69
2023/05/18 00:48:31;;;;;;;3.70;1.80;;;7.90;99.90;;;;;;5046606;28;20424;-68
2023/05/18 00:50:57;;;;;;;4.40;2.17;;;7.90;99.90;;;;;;5046520;28;20225;-69
2023/05/18 00:53:22;;;;;;;4.10;1.80;;;7.90;99.90;;;;;;5043782;28;20297;-68
2023/05/18 00:55:48;;;;;;;3.93;1.50;;;7.90;99.90;;;;;;5040913;28;20176;-69
2023/05/18 00:58:15;;;;;;;6.07;1.97;;;7.90;99.90;;;;;;5047518;28;20198;-68
2023/05/18 01:00:41;;;;;;;3.97;1.60;;;7.80;99.90;;;;;;5041258;28;20539;-69
2023/05/18 01:03:09;;;;;;;4.23;2.23;;;7.80;99.90;;;;;;5047623;28;20508;-68
2023/05/18 01:05:35;;;;;;;7.27;2.17;;;7.80;99.90;;;;;;5039946;28;20175;-69
2023/05/18 01:08:01;;;;;;;6.80;2.20;;;7.70;99.90;;;;;;5047437;28;20777;-68
2023/05/18 01:10:31;;;;;;;3.80;2.10;;;7.70;99.90;;;;;;5042231;28;20571;-69
2023/05/18 01:13:09;;;;;;;3.10;1.70;;;7.70;99.90;;;;;;5040935;28;20430;-68
2023/05/18 01:15:37;;;;;;;4.30;2.00;;;7.70;99.90;;;;;;5044367;28;20571;-67
2023/05/18 01:18:27;;;;;;;4.10;2.33;;;7.70;99.90;;;;;;5034601;28;20414;-69
2023/05/18 01:21:09;;;;;;;6.13;2.33;;;7.60;99.90;;;;;;5035489;28;20516;-68
2023/05/18 01:23:59;;;;;;;6.57;2.60;;;7.60;99.90;;;;;;5044409;28;20464;-68
2023/05/18 01:26:30;;;;;;;3.30;1.77;;;7.60;99.90;;;;;;5044239;28;20406;-68
2023/05/18 01:28:59;;;;;;;2.80;1.57;;;7.60;99.90;;;;;;5044619;28;20413;-68
2023/05/18 01:31:26;;;;;;;2.70;1.90;;;7.60;99.90;;;;;;5043217;28;20520;-68
2023/05/18 01:33:51;;;;;;;5.20;2.50;;;7.60;99.90;;;;;;5049392;28;20413;-68
2023/05/18 01:36:17;;;;;;;7.77;3.30;;;7.60;99.90;;;;;;5044581;28;20918;-68
2023/05/18 01:38:44;;;;;;;2.73;1.90;;;7.50;99.90;;;;;;5044037;28;20179;-68
2023/05/18 01:41:15;;;;;;;2.60;2.10;;;7.50;99.90;;;;;;5047924;28;20269;-69
2023/05/18 01:44:17;;;;;;;5.83;1.73;;;7.50;99.90;;;;;;5042985;28;20422;-67
2023/05/18 01:46:50;;;;;;;5.67;2.47;;;7.50;99.90;;;;;;5032059;28;20486;-68
2023/05/18 01:49:39;;;;;;;3.17;1.90;;;7.50;99.90;;;;;;5048315;28;20599;-68
2023/05/18 01:52:34;;;;;;;5.50;1.80;;;7.50;99.90;;;;;;5040709;28;20417;-67
2023/05/18 01:55:02;;;;;;;6.37;2.00;;;7.50;99.90;;;;;;5022674;28;20422;-68
2023/05/18 01:57:31;;;;;;;7.43;1.97;;;7.40;99.90;;;;;;5042353;28;20411;-68
2023/05/18 01:59:58;;;;;;;3.97;1.60;;;7.40;99.90;;;;;;5043751;28;20464;-68
2023/05/18 02:02:25;;;;;;;6.07;2.20;;;7.50;99.90;;;;;;5042143;28;20414;-68
2023/05/18 02:04:50;;;;;;;3.47;1.87;;;7.40;99.90;;;;;;5044089;28;20417;-69
2023/05/18 02:07:16;;;;;;;4.10;1.97;;;7.40;99.90;;;;;;5042816;28;20782;-69
2023/05/18 02:09:43;;;;;;;4.70;2.07;;;7.40;99.90;;;;;;5043653;28;20285;-68
2023/05/18 02:12:09;;;;;;;2.97;1.70;;;7.40;99.90;;;;;;5041761;28;20187;-68
2023/05/18 02:14:35;;;;;;;12.63;2.30;;;7.40;99.90;;;;;;5043003;28;20444;-67
2023/05/18 02:17:00;;;;;;;9.03;2.00;;;7.30;99.90;;;;;;5043264;28;20514;-68
2023/05/18 02:19:26;;;;;;;6.20;2.20;;;7.30;99.90;;;;;;5041552;28;20689;-68
2023/05/18 02:21:52;;;;;;;3.80;2.00;;;7.40;99.90;;;;;;5043160;28;20648;-68
2023/05/18 02:24:18;;;;;;;5.93;1.77;;;7.30;99.90;;;;;;5041884;28;20414;-68
2023/05/18 02:26:44;;;;;;;7.07;1.60;;;7.30;99.90;;;;;;5043029;28;20171;-68
2023/05/18 02:29:10;;;;;;;12.93;2.43;;;7.30;99.90;;;;;;5042510;28;20182;-67
2023/05/18 02:31:39;;;;;;;7.07;1.70;;;7.30;99.90;;;;;;5042183;28;20410;-68
2023/05/18 02:34:05;;;;;;;5.57;2.00;;;7.20;99.90;;;;;;5042701;28;20433;-68
2023/05/18 02:36:41;;;;;;;9.20;1.67;;;7.30;99.90;;;;;;5043840;28;20421;-69
2023/05/18 02:39:07;;;;;;;8.93;1.90;;;7.30;99.90;;;;;;5038104;28;20947;-67
2023/05/18 02:41:33;;;;;;;6.50;2.33;;;7.30;99.90;;;;;;5039745;28;20866;-67
2023/05/18 02:44:00;;;;;;;2.03;1.80;;;7.30;99.90;;;;;;5044066;28;20778;-68
2023/05/18 02:46:26;;;;;;;7.27;2.03;;;7.20;99.90;;;;;;5041082;28;20824;-70
2023/05/18 02:48:52;;;;;;;3.83;1.57;;;7.30;99.90;;;;;;5037412;28;20634;-67
2023/05/18 02:51:18;;;;;;;6.80;2.20;;;7.30;99.90;;;;;;5042148;28;20206;-68
2023/05/18 02:53:43;;;;;;;6.37;1.97;;;7.20;99.90;;;;;;5038740;28;20176;-68
2023/05/18 02:56:11;;;;;;;4.20;2.13;;;7.30;99.90;;;;;;5044450;28;20175;-68
2023/05/18 02:58:37;;;;;;;6.77;1.80;;;7.30;99.90;;;;;;5039760;28;20175;-68
2023/05/18 03:01:06;;;;;;;4.83;2.30;;;7.30;99.90;;;;;;5045179;28;20491;-68
2023/05/18 03:03:33;;;;;;;5.90;2.30;;;7.20;99.90;;;;;;5041126;28;20474;-69
2023/05/18 03:06:01;;;;;;;5.33;1.90;;;7.20;99.90;;;;;;5045724;28;20414;-69
2023/05/18 03:08:27;;;;;;;5.90;1.80;;;7.20;99.90;;;;;;5041279;28;20428;-68
2023/05/18 03:10:56;;;;;;;4.50;2.63;;;7.20;99.90;;;;;;5038991;28;20941;-68
2023/05/18 03:13:22;;;;;;;4.80;2.30;;;7.20;99.90;;;;;;5045064;28;20420;-68
2023/05/18 03:15:49;;;;;;;10.23;1.83;;;7.20;99.90;;;;;;5039045;28;20427;-68
2023/05/18 03:18:15;;;;;;;2.20;1.50;;;7.20;99.90;;;;;;5045639;28;20171;-68
2023/05/18 03:20:41;;;;;;;5.20;2.07;;;7.10;99.90;;;;;;5038789;28;20475;-68
2023/05/18 03:23:06;;;;;;;7.33;2.87;;;7.10;99.90;;;;;;5045503;28;20907;-68
2023/05/18 03:25:32;;;;;;;5.40;2.13;;;7.20;99.90;;;;;;5039749;28;20187;-68
2023/05/18 03:27:58;;;;;;;3.63;1.73;;;7.20;99.90;;;;;;5038663;28;20210;-68
2023/05/18 03:30:24;;;;;;;2.47;1.50;;;7.20;99.90;;;;;;5040267;28;20196;-68
2023/05/18 03:32:49;;;;;;;4.00;1.87;;;7.20;99.90;;;;;;5045071;28;20853;-69
2023/05/18 03:35:15;;;;;;;3.70;1.80;;;7.20;99.90;;;;;;5038677;28;20654;-69
2023/05/18 03:37:41;;;;;;;2.80;1.50;;;7.20;99.90;;;;;;5042136;28;20205;-68
2023/05/18 03:40:12;;;;;;;3.87;1.40;;;7.20;99.90;;;;;;5040658;28;20280;-68
2023/05/18 03:42:39;;;;;;;7.93;2.00;;;7.30;99.90;;;;;;5042167;28;20410;-68
2023/05/18 03:45:06;;;;;;;5.97;1.60;;;7.30;99.90;;;;;;5041570;28;20901;-68
2023/05/18 03:47:32;;;;;;;6.90;1.80;;;7.30;99.90;;;;;;5041209;28;20411;-69
2023/05/18 03:49:58;;;;;;;4.07;1.83;;;7.40;99.90;;;;;;5043538;28;20454;-68
2023/05/18 03:52:24;;;;;;;4.43;1.70;;;7.40;99.90;;;;;;5039819;28;20729;-67
2023/05/18 03:54:49;;;;;;;3.83;1.73;;;7.40;99.90;;;;;;5041891;28;20187;-68
2023/05/18 03:57:18;;;;;;;4.90;1.70;;;7.50;99.90;;;;;;5039673;28;20251;-67
2023/05/18 03:59:44;;;;;;;7.03;2.07;;;7.50;99.90;;;;;;5041977;28;20461;-69
2023/05/18 04:02:11;;;;;;;4.10;1.70;;;7.50;99.90;;;;;;5040927;28;20406;-67
2023/05/18 04:04:40;;;;;;;4.83;2.00;;;7.60;99.90;;;;;;5042089;28;20427;-68
2023/05/18 04:07:07;;;;;;;4.00;1.90;;;7.60;99.90;;;;;;5070658;22;20580;-67
2023/05/18 04:09:33;;;;;;;2.63;1.77;;;7.70;99.90;;;;;;5041586;28;20411;-68
2023/05/18 04:11:59;;;;;;;2.97;1.80;;;7.60;99.90;;;;;;5041930;28;20403;-68
2023/05/18 04:14:26;;;;;;;3.10;1.70;;;7.60;99.90;;;;;;5041848;28;20473;-68
2023/05/18 04:16:53;;;;;;;13.07;2.10;;;7.70;99.90;;;;;;5044921;28;20202;-68
2023/05/18 04:19:20;;;;;;;10.77;2.00;;;7.70;99.90;;;;;;5044534;28;20453;-68
2023/05/18 04:21:46;;;;;;;8.17;2.30;;;7.70;99.90;;;;;;5034286;28;20584;-69
2023/05/18 04:24:13;;;;;;;6.00;1.80;;;7.80;99.90;;;;;;5043676;28;20494;-69
2023/05/18 04:26:40;;;;;;;8.63;2.10;;;7.80;99.90;;;;;;5030387;28;20282;-68
2023/05/18 04:29:06;;;;;;;4.23;2.00;;;7.80;99.90;;;;;;5037415;28;20936;-68
2023/05/18 04:31:33;;;;;;;5.77;1.80;;;7.90;99.90;;;;;;5043160;28;20916;-68
2023/05/18 04:33:59;;;;;;;3.97;1.80;;;7.90;99.90;;;;;;5043317;28;20406;-68
2023/05/18 04:36:29;;;;;;;4.60;1.63;;;8.00;99.90;;;;;;5049928;28;20747;-68
2023/05/18 04:38:58;;;;;;;5.03;1.93;;;8.00;99.90;;;;;;5041740;28;20933;-68
2023/05/18 04:41:27;;;;;;;3.83;1.57;;;8.10;99.90;;;;;;5041676;28;20414;-69
2023/05/18 04:43:52;;;;;;;8.57;2.30;;;8.10;99.90;;;;;;5046049;28;20450;-68
2023/05/18 04:46:18;;;;;;;3.13;1.80;;;8.20;99.90;;;;;;5041813;28;20466;-68
2023/05/18 04:48:48;;;;;;;6.40;1.87;;;8.20;99.90;;;;;;5047890;28;20435;-68
2023/05/18 04:51:20;;;;;;;6.87;2.20;;;8.30;99.90;;;;;;5041496;28;20649;-68
2023/05/18 04:53:48;;;;;;;8.70;2.10;;;8.40;99.90;;;;;;5044916;28;20472;-67
2023/05/18 04:56:22;;;;;;;11.77;2.80;;;8.40;99.90;;;;;;5041957;28;20422;-68
2023/05/18 04:58:48;;;;;;;3.20;1.60;;;8.60;99.90;;;;;;5044764;28;20420;-69
2023/05/18 05:01:14;;;;;;;4.00;1.80;;;9.10;99.90;;;;;;5043250;28;20508;-69
2023/05/18 05:03:41;;;;;;;5.03;2.03;;;9.70;99.90;;;;;;5044999;28;20405;-68
2023/05/18 05:06:07;;;;;;;6.07;1.90;;;9.90;99.90;;;;;;5044952;28;20438;-68
2023/05/18 05:08:33;;;;;;;3.37;1.57;;;10.20;99.90;;;;;;5043674;28;20457;-69
2023/05/18 05:10:59;;;;;;;13.20;1.97;;;10.70;99.90;;;;;;5044482;28;20414;-69
2023/05/18 05:13:25;;;;;;;7.70;1.50;;;10.80;99.90;;;;;;5041009;28;20779;-68
2023/05/18 05:15:51;;;;;;;6.80;2.27;;;11.20;99.90;;;;;;5043723;28;20435;-68
2023/05/18 05:18:17;;;;;;;4.03;1.63;;;11.50;99.90;;;;;;5043285;28;20176;-69
2023/05/18 05:20:42;;;;;;;5.13;1.67;;;11.50;99.90;;;;;;5044400;28;20207;-68
2023/05/18 05:23:08;;;;;;;8.40;2.10;;;12.20;99.90;;;;;;5044702;28;20176;-69
2023/05/18 05:25:33;;;;;;;2.47;1.97;;;11.90;99.90;;;;;;5043341;28;20179;-68
2023/05/18 05:27:59;;;;;;;5.90;1.43;;;12.10;99.90;;;;;;5044337;28;20173;-69
2023/05/18 05:30:25;;;;;;;1.87;1.40;;;12.40;99.90;;;;;;5041924;28;20229;-68
2023/05/18 05:32:50;;;;;;;3.87;1.93;;;12.30;99.90;;;;;;5044357;28;20254;-68
2023/05/18 05:35:16;;;;;;;4.90;1.40;;;12.60;99.90;;;;;;5041156;28;20597;-68
2023/05/18 05:37:41;;;;;;;4.70;2.00;;;13.00;99.90;;;;;;5043814;28;20204;-68
2023/05/18 05:40:08;;;;;;;5.80;1.93;;;12.90;99.90;;;;;;5042974;28;20201;-69
2023/05/18 05:42:34;;;;;;;4.70;1.80;;;13.20;99.90;;;;;;5043187;28;20527;-69
2023/05/18 05:45:00;;;;;;;12.80;1.63;;;13.60;99.90;;;;;;5044829;28;20481;-69
2023/05/18 05:47:26;;;;;;;3.60;1.70;;;14.40;99.90;;;;;;5042667;28;20684;-69
2023/05/18 05:49:51;;;;;;;6.77;2.13;;;14.30;99.90;;;;;;5043561;28;20418;-69
2023/05/18 05:52:17;;;;;;;5.20;1.83;;;14.20;99.90;;;;;;5041317;28;20177;-69
2023/05/18 05:54:43;;;;;;;3.50;1.80;;;13.80;99.90;;;;;;5043345;28;20225;-69
2023/05/18 05:57:08;;;;;;;2.97;1.43;;;14.10;99.90;;;;;;5042325;28;20678;-68
2023/05/18 05:59:34;;;;;;;3.50;2.60;;;14.60;99.90;;;;;;5042434;28;20199;-68
2023/05/18 06:02:00;;;;;;;2.77;1.60;;;14.90;99.90;;;;;;5043492;28;20173;-68
2023/05/18 06:04:26;;;;;;;3.90;1.67;;;15.30;99.90;;;;;;5042359;28;20186;-69
2023/05/18 06:06:51;;;;;;;6.77;2.07;;;15.20;99.90;;;;;;5043062;28;20823;-68
2023/05/18 06:09:17;;;;;;;5.47;1.83;;;15.10;99.90;;;;;;5040935;28;20176;-68
2023/05/18 06:11:43;;;;;;;3.90;1.50;;;14.60;99.90;;;;;;5043055;28;20662;-68
2023/05/18 06:14:08;;;;;;;5.93;2.00;;;15.30;99.90;;;;;;5042085;28;20183;-67
2023/05/18 06:16:34;;;;;;;4.87;2.17;;;15.70;99.90;;;;;;5042538;28;20200;-70
2023/05/18 06:19:00;;;;;;;6.80;2.23;;;16.30;99.90;;;;;;5043195;28;20512;-68
2023/05/18 06:21:25;;;;;;;6.30;2.43;;;15.90;99.90;;;;;;5042328;28;20194;-68
2023/05/18 06:23:51;;;;;;;6.90;1.80;;;16.30;99.90;;;;;;5043301;28;20654;-68
2023/05/18 06:26:16;;;;;;;5.30;2.37;;;16.60;99.90;;;;;;5039343;28;20294;-69
2023/05/18 06:28:42;;;;;;;3.10;1.43;;;16.70;99.90;;;;;;5042316;28;20175;-68
2023/05/18 06:31:08;;;;;;;5.53;1.80;;;17.10;99.90;;;;;;5043337;28;20265;-69
2023/05/18 06:33:35;;;;;;;8.10;2.07;;;18.30;99.30;;;;;;5040143;28;20671;-68
2023/05/18 06:36:00;;;;;;;4.10;1.70;;;19.10;98.20;;;;;;5043250;28;20739;-68
2023/05/18 06:38:26;;;;;;;3.70;1.77;;;19.20;96.60;;;;;;5041178;28;20445;-67
2023/05/18 06:40:51;;;;;;;3.60;1.70;;;19.40;95.40;;;;;;5043006;28;20517;-67
2023/05/18 06:43:17;;;;;;;5.63;1.50;;;18.70;95.90;;;;;;5042270;28;20173;-68
2023/05/18 06:45:43;;;;;;;3.67;1.33;;;19.40;95.10;;;;;;5042496;28;20170;-68
2023/05/18 06:48:08;;;;;;;5.43;2.37;;;17.40;96.10;;;;;;5042901;28;20258;-68
2023/05/18 06:50:34;;;;;;;7.23;3.00;;;17.30;97.70;;;;;;5039810;28;20227;-68
2023/05/18 06:53:01;;;;;;;6.97;1.47;;;17.80;96.60;;;;;;5043299;28;20211;-68
2023/05/18 06:55:26;;;;;;;3.40;1.87;;;17.90;96.70;;;;;;5029025;28;20186;-68
2023/05/18 06:57:55;;;;;;;2.30;1.53;;;17.40;97.40;;;;;;5042633;28;20442;-68
2023/05/18 07:00:21;;;;;;;2.20;1.20;;;18.10;97.40;;;;;;5044620;28;20199;-68
2023/05/18 07:02:46;;;;;;;4.03;1.43;;;18.50;96.00;;;;;;5039540;28;20417;-68
2023/05/18 07:05:12;;;;;;;3.07;2.10;;;17.90;96.50;;;;;;5044107;28;20544;-69
2023/05/18 07:07:38;;;;;;;3.63;1.70;;;17.90;95.30;;;;;;5039034;28;20289;-74
2023/05/18 07:10:04;;;;;;;5.93;1.80;;;18.30;94.90;;;;;;5044266;28;20210;-70
2023/05/18 07:12:30;;;;;;;3.23;1.97;;;18.70;94.20;;;;;;5040095;28;20188;-69
2023/05/18 07:14:55;;;;;;;2.10;1.40;;;18.70;93.80;;;;;;5043626;28;20405;-68
2023/05/18 07:17:21;;;;;;;4.47;1.60;;;19.50;94.10;;;;;;5041797;28;20437;-69
2023/05/18 07:19:47;;;;;;;4.23;1.93;;;19.70;94.30;;;;;;5043116;28;20198;-68
2023/05/18 07:22:13;;;;;;;4.40;1.43;;;19.10;94.10;;;;;;5042873;28;20304;-69
2023/05/18 07:24:38;;;;;;;3.50;1.67;;;18.30;93.70;;;;;;5039199;28;20171;-70
2023/05/18 07:27:04;;;;;;;6.80;2.13;;;18.30;93.80;;;;;;5043432;28;20680;-69
2023/05/18 07:29:30;;;;;;;3.37;1.30;;;18.30;93.30;;;;;;5039957;28;20170;-68
2023/05/18 07:31:56;;;;;;;2.90;1.53;;;19.40;92.10;;;;;;5038812;28;20437;-68
2023/05/18 07:34:22;;;;;;;4.33;1.70;;;19.10;91.90;;;;;;5039832;28;20410;-69
2023/05/18 07:36:48;;;;;;;8.10;1.77;;;19.40;92.60;;;;;;5043201;28;20202;-69
2023/05/18 07:39:18;;;;;;;2.83;1.40;;;19.40;91.40;;;;;;5040343;28;20974;-69
2023/05/18 07:41:46;;;;;;;2.90;1.47;;;18.60;92.00;;;;;;5048587;28;20228;-68
2023/05/18 07:44:12;;;;;;;5.07;2.00;;;18.10;93.30;;;;;;5039165;28;20982;-68
2023/05/18 07:46:38;;;;;;;3.20;2.00;;;19.40;91.30;;;;;;5050222;28;20426;-66
2023/05/18 07:49:03;;;;;;;3.83;1.50;;;19.90;91.90;;;;;;5042971;28;20464;-68
2023/05/18 07:51:30;;;;;;;3.70;2.00;;;20.30;90.00;;;;;;5044696;28;20672;-67
2023/05/18 07:53:56;;;;;;;6.17;1.77;;;18.70;90.90;;;;;;5045856;28;20198;-69
2023/05/18 07:56:23;;;;;;;3.70;1.47;;;19.60;90.30;;;;;;5043894;28;20422;-67
2023/05/18 07:58:48;;;;;;;4.80;1.73;;;19.80;90.80;;;;;;5047898;28;20493;-68
2023/05/18 08:01:14;;;;;;;5.77;2.03;;;19.70;83.70;;;;;;5044406;28;20911;-67
2023/05/18 08:03:40;;;;;;;3.53;1.40;;;19.90;84.40;;;;;;5052850;28;20182;-67
2023/05/18 08:06:06;;;;;;;3.90;1.90;;;18.80;86.70;;;;;;5037889;28;21196;-69
2023/05/18 08:08:31;;;;;;;5.10;2.07;;;18.60;86.40;;;;;;5044771;28;20184;-68
2023/05/18 08:10:58;;;;;;;7.40;2.33;;;18.50;84.70;;;;;;5045808;28;20450;-69
2023/05/18 08:13:24;;;;;;;10.23;4.57;;;18.20;87.00;;;;;;5043584;28;20200;-70
2023/05/18 08:15:50;;;;;;;3.80;1.80;;;17.90;88.60;;;;;;5047237;28;20448;-70
2023/05/18 08:18:15;;;;;;;4.00;1.30;;;17.30;88.10;;;;;;5042805;28;20173;-66
2023/05/18 08:20:41;;;;;;;11.47;5.43;;;17.20;88.90;;;;;;5049828;28;20279;-71
2023/05/18 08:23:06;;;;;;;5.20;1.40;;;17.60;90.30;;;;;;5042234;28;20255;-75
2023/05/18 08:25:32;;;;;;;26.07;14.50;;;17.80;85.40;;;;;;5044626;28;20232;-74
2023/05/18 08:27:58;;;;;;;8.37;3.63;;;18.10;88.60;;;;;;5045414;28;20169;-68
2023/05/18 08:30:25;;;;;;;6.83;3.67;;;18.10;86.80;;;;;;5043480;28;20236;-73
2023/05/18 08:32:51;;;;;;;5.93;2.40;;;17.60;83.70;;;;;;5045675;28;20179;-70
2023/05/18 08:35:16;;;;;;;2.40;1.50;;;17.50;84.30;;;;;;5043302;28;20411;-70
2023/05/18 08:37:42;;;;;;;13.70;4.70;;;17.50;86.60;;;;;;5045514;28;20754;-70
2023/05/18 08:40:10;;;;;;;8.43;5.10;;;18.00;86.30;;;;;;5044544;28;20204;-70
2023/05/18 08:42:46;;;;;;;5.93;1.90;;;18.40;84.80;;;;;;5044882;28;20165;-70
2023/05/18 08:45:31;;;;;;;3.93;1.87;;;17.60;86.60;;;;;;5044756;28;20408;-70
2023/05/18 08:47:59;;;;;;;5.70;2.67;;;18.00;87.10;;;;;;5039056;28;20773;-68
2023/05/18 08:50:27;;;;;;;2.40;1.50;;;17.80;85.30;;;;;;5042744;28;20921;-69
2023/05/18 08:52:54;;;;;;;3.37;1.60;;;18.20;86.40;;;;;;5044504;28;20444;-68
2023/05/18 08:55:22;;;;;;;4.20;2.67;;;18.30;85.40;;;;;;5044086;28;20410;-68
2023/05/18 08:57:54;;;;;;;4.97;1.40;;;17.30;88.80;;;;;;5037746;28;20492;-69
2023/05/18 09:00:22;;;;;;;3.73;1.30;;;17.70;87.60;;;;;;5042871;28;20819;-67
2023/05/18 09:02:48;;;;;;;4.43;1.47;;;17.10;87.90;;;;;;5044388;28;20421;-68
2023/05/18 09:05:15;;;;;;;4.57;1.67;;;16.90;89.10;;;;;;5044787;28;20403;-68
2023/05/18 09:07:42;;;;;;;5.80;1.50;;;16.40;89.00;;;;;;5041025;28;20474;-68
2023/05/18 09:10:12;;;;;;;5.77;3.20;;;16.60;89.90;;;;;;5046301;28;20417;-67
2023/05/18 09:12:40;;;;;;;8.80;1.93;;;16.40;89.80;;;;;;5041055;28;20928;-68
2023/05/18 09:15:08;;;;;;;4.83;1.57;;;16.90;87.30;;;;;;5046617;28;20915;-68
2023/05/18 09:17:34;;;;;;;3.77;1.57;;;16.90;86.90;;;;;;5041258;28;20442;-67
2023/05/18 09:20:00;;;;;;;2.10;1.40;;;17.10;86.30;;;;;;5046752;28;20468;-67
2023/05/18 09:22:26;;;;;;;4.27;1.73;;;17.20;86.90;;;;;;5042658;28;20179;-68
2023/05/18 09:24:52;;;;;;;9.47;1.67;;;16.60;86.40;;;;;;5040734;28;20182;-68
2023/05/18 09:27:18;;;;;;;2.80;1.37;;;16.80;85.20;;;;;;5046991;28;20430;-67
2023/05/18 09:29:57;;;;;;;3.03;1.60;;;16.40;84.90;;;;;;5040561;28;20420;-67
2023/05/18 09:32:24;;;;;;;4.57;1.60;;;16.70;85.50;;;;;;5040324;28;20604;-69
2023/05/18 09:34:50;;;;;;;3.60;1.70;;;16.60;85.20;;;;;;5044101;28;20421;-69
2023/05/18 09:37:21;;;;;;;6.43;2.23;;;16.40;86.20;;;;;;5041378;28;20516;-69
2023/05/18 09:39:59;;;;;;;4.17;1.67;;;15.90;88.30;;;;;;5039410;28;20478;-69
2023/05/18 09:42:43;;;;;;;8.23;1.67;;;16.00;87.80;;;;;;5037818;28;20410;-67
2023/05/18 09:45:23;;;;;;;3.43;1.37;;;16.10;87.20;;;;;;5043974;28;20498;-67
2023/05/18 09:47:52;;;;;;;4.83;1.63;;;15.80;87.50;;;;;;5035137;28;20581;-67
2023/05/18 09:50:22;;;;;;;3.37;1.53;;;15.90;88.30;;;;;;5043163;28;20411;-68
2023/05/18 09:52:48;;;;;;;4.40;1.77;;;15.80;89.90;;;;;;5042594;28;20413;-67
2023/05/18 09:55:18;;;;;;;7.57;2.90;;;16.60;88.50;;;;;;5043731;28;20420;-68
2023/05/18 09:57:49;;;;;;;4.67;1.93;;;16.90;86.60;;;;;;5042888;28;20439;-67
2023/05/18 10:00:17;;;;;;;2.50;1.20;;;16.90;83.60;;;;;;5043399;28;20449;-67
2023/05/18 10:02:50;;;;;;;6.83;4.50;;;15.90;85.80;;;;;;5041968;28;20507;-67
2023/05/18 10:05:26;;;;;;;3.20;1.47;;;15.70;85.40;;;;;;5042955;28;20424;-68
2023/05/18 10:07:53;;;;;;;3.07;1.37;;;16.30;86.50;;;;;;5039619;28;20455;-67
2023/05/18 10:10:26;;;;;;;3.03;1.43;;;16.00;86.20;;;;;;5045845;28;20425;-67
2023/05/18 10:12:54;;;;;;;6.13;1.63;;;16.40;86.30;;;;;;5039806;28;20409;-67
2023/05/18 10:15:21;;;;;;;2.47;1.37;;;15.90;86.20;;;;;;5046497;28;20415;-68
2023/05/18 10:17:49;;;;;;;2.20;1.10;;;16.20;85.90;;;;;;5039391;28;20444;-68
2023/05/18 10:20:18;;;;;;;7.47;1.63;;;17.10;82.90;;;;;;5047383;28;20463;-68
2023/05/18 10:22:45;;;;;;;6.60;1.83;;;17.00;80.70;;;;;;5039832;28;20470;-68
2023/05/18 10:25:12;;;;;;;5.27;1.90;;;17.20;80.10;;;;;;5039564;28;20419;-68
2023/05/18 10:27:41;;;;;;;3.03;1.60;;;17.00;82.10;;;;;;5044094;28;20483;-68
2023/05/18 10:30:07;;;;;;;3.40;1.57;;;17.30;82.20;;;;;;5035862;28;20420;-68
2023/05/18 10:32:35;;;;;;;2.67;1.70;;;17.00;81.60;;;;;;5042009;28;20491;-68
2023/05/18 10:35:04;;;;;;;6.23;1.70;;;16.60;79.60;;;;;;5042156;28;20416;-68
2023/05/18 10:37:32;;;;;;;4.23;1.80;;;16.40;82.30;;;;;;5041620;28;20861;-68
2023/05/18 10:40:00;;;;;;;2.00;1.30;;;16.90;80.20;;;;;;5041095;28;20472;-68
2023/05/18 10:42:28;;;;;;;10.30;2.60;;;16.80;82.00;;;;;;5041209;28;20440;-68
2023/05/18 10:44:56;;;;;;;3.27;1.93;;;17.10;80.30;;;;;;5042471;28;20518;-67
2023/05/18 10:47:26;;;;;;;3.40;1.37;;;17.20;80.40;;;;;;5041642;28;20519;-67
2023/05/18 10:49:52;;;;;;;2.67;1.10;;;17.40;80.50;;;;;;5042818;28;20796;-67
2023/05/18 10:52:19;;;;;;;2.73;1.30;;;16.90;82.10;;;;;;5040298;28;20416;-67
2023/05/18 10:54:45;;;;;;;5.00;1.90;;;16.90;83.80;;;;;;5041114;28;20413;-67
2023/05/18 10:57:15;;;;;;;2.20;1.67;;;17.20;84.20;;;;;;5041822;28;20464;-67
2023/05/18 10:59:43;;;;;;;4.40;1.67;;;17.00;81.50;;;;;;5030841;28;20536;-67
2023/05/18 11:02:11;;;;;;;5.37;1.67;;;16.70;80.80;;;;;;5042136;28;20406;-68
2023/05/18 11:04:39;;;;;;;5.80;1.40;;;16.40;80.50;;;;;;5030647;28;20460;-67
2023/05/18 11:07:09;;;;;;;5.80;1.53;;;16.60;79.50;;;;;;5042523;28;20515;-68
2023/05/18 11:09:35;;;;;;;6.17;2.30;;;17.20;79.40;;;;;;5040208;28;20497;-67
2023/05/18 11:12:01;;;;;;;8.63;2.40;;;17.30;79.10;;;;;;5042475;28;20891;-67
2023/05/18 11:14:30;;;;;;;3.27;1.80;;;17.40;78.40;;;;;;5042730;28;20184;-68
2023/05/18 11:17:16;;;;;;;4.20;1.37;;;17.30;78.80;;;;;;5040660;28;20441;-67
2023/05/18 11:20:11;;;;;;;5.30;1.50;;;16.80;81.90;;;;;;5044629;28;20479;-67
2023/05/18 11:22:58;;;;;;;4.00;1.67;;;17.40;80.40;;;;;;5043059;28;20453;-67
2023/05/18 11:25:24;;;;;;;4.20;1.40;;;16.90;80.30;;;;;;5044674;28;20410;-67
2023/05/18 11:27:51;;;;;;;4.40;1.70;;;16.80;82.50;;;;;;5048213;28;20431;-67
2023/05/18 11:30:27;;;;;;;2.80;1.57;;;16.60;82.20;;;;;;5043463;28;20404;-67
2023/05/18 11:33:10;;;;;;;6.20;1.60;;;16.40;83.80;;;;;;5046802;28;20510;-68
2023/05/18 11:35:55;;;;;;;3.50;1.60;;;16.20;83.50;;;;;;5043632;28;20417;-68
2023/05/18 11:38:22;;;;;;;3.50;1.23;;;15.90;84.30;;;;;;5045162;28;20805;-68
2023/05/18 11:40:49;;;;;;;2.60;1.73;;;16.00;84.30;;;;;;5045841;28;20454;-68
2023/05/18 11:43:22;;;;;;;3.30;1.70;;;15.90;85.30;;;;;;5045971;28;20417;-68
2023/05/18 11:45:55;;;;;;;3.03;1.27;;;16.30;84.40;;;;;;5046496;28;20478;-68
2023/05/18 11:48:25;;;;;;;4.40;2.00;;;16.60;82.80;;;;;;5045147;28;20545;-67
2023/05/18 11:50:55;;;;;;;1.50;1.27;;;17.00;83.40;;;;;;5042833;28;20914;-67
2023/05/18 11:53:25;;;;;;;4.73;1.00;;;16.70;81.30;;;;;;5048671;28;20415;-66
2023/05/18 11:55:53;;;;;;;3.03;1.70;;;16.50;83.20;;;;;;5042038;28;20411;-68
2023/05/18 11:58:20;;;;;;;2.33;1.10;;;16.80;83.10;;;;;;5049325;28;20458;-69
2023/05/18 12:00:47;;;;;;;4.17;1.50;;;17.20;81.60;;;;;;5042268;28;20894;-67
2023/05/18 12:03:14;;;;;;;3.57;1.43;;;17.10;79.90;;;;;;5049816;28;20423;-69
2023/05/18 12:05:48;;;;;;;3.83;1.77;;;16.80;80.00;;;;;;5037474;28;20413;-69
2023/05/18 12:08:18;;;;;;;4.17;1.97;;;16.60;80.50;;;;;;5042391;28;20832;-68
2023/05/18 12:10:48;;;;;;;4.50;1.57;;;16.40;81.50;;;;;;5047676;28;20411;-69
2023/05/18 12:13:16;;;;;;;6.90;1.77;;;16.70;81.10;;;;;;5043059;28;20408;-69
2023/05/18 12:15:43;;;;;;;5.30;4.27;;;16.80;80.20;;;;;;5048428;28;20405;-67
2023/05/18 12:18:10;;;;;;;2.97;1.23;;;16.80;79.50;;;;;;5042562;28;20515;-68
2023/05/18 12:20:38;;;;;;;4.40;1.90;;;16.40;81.00;;;;;;5049560;28;20468;-68
2023/05/18 12:23:04;;;;;;;2.93;1.60;;;16.70;81.50;;;;;;5042300;28;20438;-68
2023/05/18 12:25:29;;;;;;;2.17;1.10;;;17.00;78.60;;;;;;5041380;28;20493;-68
2023/05/18 12:27:55;;;;;;;5.80;2.07;;;17.00;77.90;;;;;;5041671;28;20282;-68
2023/05/18 12:30:33;;;;;;;3.10;2.10;;;16.70;79.20;;;;;;5042835;28;20181;-68
2023/05/18 12:33:00;;;;;;;3.83;2.13;;;16.80;79.80;;;;;;5045424;28;20256;-67
2023/05/18 12:35:27;;;;;;;2.63;1.90;;;17.00;79.60;;;;;;5042501;28;20421;-68
2023/05/18 12:37:59;;;;;;;4.37;2.33;;;17.30;79.20;;;;;;5045075;28;20481;-67
2023/05/18 12:40:25;;;;;;;2.90;1.57;;;17.80;78.80;;;;;;5043336;28;20459;-69
2023/05/18 12:42:59;;;;;;;8.07;2.03;;;17.40;77.90;;;;;;5045273;28;20408;-67
2023/05/18 12:45:27;;;;;;;3.77;1.90;;;17.10;79.90;;;;;;5044256;28;20791;-69
2023/05/18 12:47:53;;;;;;;3.57;1.63;;;17.00;80.20;;;;;;5044542;28;20428;-68
2023/05/18 12:50:27;;;;;;;3.47;1.80;;;17.10;79.10;;;;;;5044362;28;20418;-68
2023/05/18 12:52:55;;;;;;;2.90;1.27;;;17.00;78.80;;;;;;5044405;28;20419;-68
2023/05/18 12:55:21;;;;;;;2.10;1.27;;;16.90;78.00;;;;;;5042324;28;20532;-68